sensor_id;sensor_type;location;lat;lon;timestamp;P1;durP1;ratioP1;P2;durP2;ratioP2
19396;SDS011;9834;48.076;11.878;2023-10-13T00:01:35;3.20;;;1.60;;
19396;SDS011;9834;48.076;11.878;2023-10-13T00:04:06;5.30;;;2.00;;
19396;SDS011;9834;48.076;11.878;2023-10-13T00:06:45;6.03;;;1.80;;
19396;SDS011;9834;48.076;11.878;2023-10-13T00:09:12;3.07;;;1.63;;
19396;SDS011;9834;48.076;11.878;2023-10-13T00:11:46;2.23;;;1.43;;
19396;SDS011;9834;48.076;11.878;2023-10-13T00:14:14;4.50;;;2.20;;
19396;SDS011;9834;48.076;11.878;2023-10-13T00:16:42;4.63;;;1.63;;
19396;SDS011;9834;48.076;11.878;2023-10-13T00:19:26;3.43;;;1.67;;
19396;SDS011;9834;48.076;11.878;2023-10-13T00:22:13;3.17;;;1.60;;
19396;SDS011;9834;48.076;11.878;2023-10-13T00:24:42;3.67;;;1.87;;
19396;SDS011;9834;48.076;11.878;2023-10-13T00:27:11;1.87;;;1.50;;
19396;SDS011;9834;48.076;11.878;2023-10-13T00:29:58;2.77;;;1.30;;
19396;SDS011;9834;48.076;11.878;2023-10-13T00:33:04;6.87;;;2.03;;
19396;SDS011;9834;48.076;11.878;2023-10-13T00:35:45;3.40;;;1.53;;
19396;SDS011;9834;48.076;11.878;2023-10-13T00:38:25;5.70;;;2.10;;
19396;SDS011;9834;48.076;11.878;2023-10-13T00:41:00;2.37;;;1.60;;
19396;SDS011;9834;48.076;11.878;2023-10-13T00:43:51;2.83;;;1.67;;
19396;SDS011;9834;48.076;11.878;2023-10-13T00:46:33;3.77;;;1.37;;
19396;SDS011;9834;48.076;11.878;2023-10-13T00:49:01;4.17;;;1.20;;
19396;SDS011;9834;48.076;11.878;2023-10-13T00:51:30;2.20;;;1.50;;
19396;SDS011;9834;48.076;11.878;2023-10-13T00:54:10;3.20;;;1.47;;
19396;SDS011;9834;48.076;11.878;2023-10-13T00:56:43;1.80;;;1.47;;
19396;SDS011;9834;48.076;11.878;2023-10-13T00:59:19;4.13;;;1.83;;
19396;SDS011;9834;48.076;11.878;2023-10-13T01:01:53;2.33;;;1.40;;
19396;SDS011;9834;48.076;11.878;2023-10-13T01:04:20;2.37;;;1.63;;
19396;SDS011;9834;48.076;11.878;2023-10-13T01:06:48;5.53;;;1.97;;
19396;SDS011;9834;48.076;11.878;2023-10-13T01:09:17;2.00;;;1.43;;
19396;SDS011;9834;48.076;11.878;2023-10-13T01:11:46;2.70;;;1.33;;
19396;SDS011;9834;48.076;11.878;2023-10-13T01:14:18;1.87;;;1.47;;
19396;SDS011;9834;48.076;11.878;2023-10-13T01:16:46;2.93;;;1.40;;
19396;SDS011;9834;48.076;11.878;2023-10-13T01:19:13;2.47;;;1.43;;
19396;SDS011;9834;48.076;11.878;2023-10-13T01:21:46;3.27;;;1.80;;
19396;SDS011;9834;48.076;11.878;2023-10-13T01:24:17;2.43;;;1.90;;
19396;SDS011;9834;48.076;11.878;2023-10-13T01:26:56;5.37;;;1.50;;
19396;SDS011;9834;48.076;11.878;2023-10-13T01:29:23;3.00;;;1.40;;
19396;SDS011;9834;48.076;11.878;2023-10-13T01:31:57;8.13;;;1.60;;
19396;SDS011;9834;48.076;11.878;2023-10-13T01:34:24;4.03;;;1.87;;
19396;SDS011;9834;48.076;11.878;2023-10-13T01:36:58;3.77;;;2.13;;
19396;SDS011;9834;48.076;11.878;2023-10-13T01:39:41;2.43;;;1.50;;
19396;SDS011;9834;48.076;11.878;2023-10-13T01:42:17;4.47;;;1.83;;
19396;SDS011;9834;48.076;11.878;2023-10-13T01:44:47;6.00;;;2.03;;
19396;SDS011;9834;48.076;11.878;2023-10-13T01:47:17;4.37;;;1.67;;
19396;SDS011;9834;48.076;11.878;2023-10-13T01:49:49;7.73;;;1.80;;
19396;SDS011;9834;48.076;11.878;2023-10-13T01:52:15;2.03;;;1.83;;
19396;SDS011;9834;48.076;11.878;2023-10-13T01:55:03;1.63;;;1.40;;
19396;SDS011;9834;48.076;11.878;2023-10-13T01:57:38;1.73;;;1.40;;
19396;SDS011;9834;48.076;11.878;2023-10-13T02:00:08;1.50;;;1.27;;
19396;SDS011;9834;48.076;11.878;2023-10-13T02:02:47;1.53;;;1.20;;
19396;SDS011;9834;48.076;11.878;2023-10-13T02:05:16;1.83;;;1.47;;
19396;SDS011;9834;48.076;11.878;2023-10-13T02:07:42;4.70;;;1.90;;
19396;SDS011;9834;48.076;11.878;2023-10-13T02:10:32;1.67;;;1.30;;
19396;SDS011;9834;48.076;11.878;2023-10-13T02:13:10;1.60;;;1.23;;
19396;SDS011;9834;48.076;11.878;2023-10-13T02:15:55;4.33;;;1.80;;
19396;SDS011;9834;48.076;11.878;2023-10-13T02:18:31;3.00;;;1.70;;
19396;SDS011;9834;48.076;11.878;2023-10-13T02:21:08;1.60;;;1.33;;
19396;SDS011;9834;48.076;11.878;2023-10-13T02:23:42;2.07;;;1.50;;
19396;SDS011;9834;48.076;11.878;2023-10-13T02:26:26;3.83;;;1.30;;
19396;SDS011;9834;48.076;11.878;2023-10-13T02:29:06;2.57;;;1.50;;
19396;SDS011;9834;48.076;11.878;2023-10-13T02:34:43;3.17;;;1.43;;
19396;SDS011;9834;48.076;11.878;2023-10-13T02:37:10;4.47;;;1.70;;
19396;SDS011;9834;48.076;11.878;2023-10-13T02:39:38;7.60;;;2.03;;
19396;SDS011;9834;48.076;11.878;2023-10-13T02:45:30;1.93;;;1.67;;
19396;SDS011;9834;48.076;11.878;2023-10-13T02:48:01;4.43;;;1.70;;
19396;SDS011;9834;48.076;11.878;2023-10-13T02:50:54;6.30;;;1.67;;
19396;SDS011;9834;48.076;11.878;2023-10-13T02:53:30;2.50;;;1.67;;
19396;SDS011;9834;48.076;11.878;2023-10-13T02:55:57;5.80;;;1.73;;
19396;SDS011;9834;48.076;11.878;2023-10-13T02:58:32;2.40;;;1.27;;
19396;SDS011;9834;48.076;11.878;2023-10-13T03:01:07;4.70;;;1.50;;
19396;SDS011;9834;48.076;11.878;2023-10-13T03:03:55;3.23;;;1.50;;
19396;SDS011;9834;48.076;11.878;2023-10-13T03:06:40;1.90;;;1.50;;
19396;SDS011;9834;48.076;11.878;2023-10-13T03:09:09;4.13;;;1.57;;
19396;SDS011;9834;48.076;11.878;2023-10-13T03:11:45;2.87;;;1.90;;
19396;SDS011;9834;48.076;11.878;2023-10-13T03:14:14;2.10;;;1.60;;
19396;SDS011;9834;48.076;11.878;2023-10-13T03:16:53;2.40;;;1.70;;
19396;SDS011;9834;48.076;11.878;2023-10-13T03:19:28;3.50;;;1.80;;
19396;SDS011;9834;48.076;11.878;2023-10-13T03:21:58;3.43;;;1.63;;
19396;SDS011;9834;48.076;11.878;2023-10-13T03:24:33;3.67;;;1.50;;
19396;SDS011;9834;48.076;11.878;2023-10-13T03:27:01;4.23;;;1.60;;
19396;SDS011;9834;48.076;11.878;2023-10-13T03:29:38;1.17;;;1.07;;
19396;SDS011;9834;48.076;11.878;2023-10-13T03:32:10;1.60;;;1.20;;
19396;SDS011;9834;48.076;11.878;2023-10-13T03:34:54;7.60;;;1.80;;
19396;SDS011;9834;48.076;11.878;2023-10-13T03:37:37;1.47;;;1.37;;
19396;SDS011;9834;48.076;11.878;2023-10-13T03:40:07;3.77;;;1.90;;
19396;SDS011;9834;48.076;11.878;2023-10-13T03:42:59;8.10;;;2.40;;
19396;SDS011;9834;48.076;11.878;2023-10-13T03:45:30;2.50;;;1.70;;
19396;SDS011;9834;48.076;11.878;2023-10-13T03:48:04;4.27;;;2.10;;
19396;SDS011;9834;48.076;11.878;2023-10-13T03:51:05;4.80;;;1.43;;
19396;SDS011;9834;48.076;11.878;2023-10-13T03:57:45;2.23;;;1.40;;
19396;SDS011;9834;48.076;11.878;2023-10-13T04:00:15;4.43;;;1.73;;
19396;SDS011;9834;48.076;11.878;2023-10-13T04:02:50;1.63;;;1.23;;
19396;SDS011;9834;48.076;11.878;2023-10-13T04:05:34;6.10;;;1.63;;
19396;SDS011;9834;48.076;11.878;2023-10-13T04:08:26;4.33;;;1.57;;
19396;SDS011;9834;48.076;11.878;2023-10-13T04:11:14;2.07;;;1.40;;
19396;SDS011;9834;48.076;11.878;2023-10-13T04:13:59;3.10;;;1.50;;
19396;SDS011;9834;48.076;11.878;2023-10-13T04:16:49;3.73;;;1.73;;
19396;SDS011;9834;48.076;11.878;2023-10-13T04:19:24;6.47;;;1.70;;
19396;SDS011;9834;48.076;11.878;2023-10-13T04:21:58;9.50;;;2.03;;
19396;SDS011;9834;48.076;11.878;2023-10-13T04:24:39;3.83;;;1.50;;
19396;SDS011;9834;48.076;11.878;2023-10-13T04:27:23;4.80;;;1.83;;
19396;SDS011;9834;48.076;11.878;2023-10-13T04:30:12;3.27;;;2.07;;
19396;SDS011;9834;48.076;11.878;2023-10-13T04:32:50;4.50;;;1.50;;
19396;SDS011;9834;48.076;11.878;2023-10-13T04:35:42;2.30;;;2.00;;
19396;SDS011;9834;48.076;11.878;2023-10-13T04:38:25;8.60;;;1.93;;
19396;SDS011;9834;48.076;11.878;2023-10-13T04:41:15;6.00;;;1.80;;
19396;SDS011;9834;48.076;11.878;2023-10-13T04:43:53;3.40;;;2.10;;
19396;SDS011;9834;48.076;11.878;2023-10-13T04:46:22;3.10;;;2.20;;
19396;SDS011;9834;48.076;11.878;2023-10-13T04:49:03;3.20;;;1.97;;
19396;SDS011;9834;48.076;11.878;2023-10-13T04:51:51;2.70;;;1.53;;
19396;SDS011;9834;48.076;11.878;2023-10-13T04:54:39;6.03;;;1.93;;
19396;SDS011;9834;48.076;11.878;2023-10-13T04:57:23;1.73;;;1.60;;
19396;SDS011;9834;48.076;11.878;2023-10-13T04:59:59;2.90;;;1.97;;
19396;SDS011;9834;48.076;11.878;2023-10-13T05:02:52;2.57;;;2.37;;
19396;SDS011;9834;48.076;11.878;2023-10-13T05:05:51;4.10;;;1.80;;
19396;SDS011;9834;48.076;11.878;2023-10-13T05:08:55;2.17;;;1.97;;
19396;SDS011;9834;48.076;11.878;2023-10-13T05:11:41;6.37;;;2.03;;
19396;SDS011;9834;48.076;11.878;2023-10-13T05:14:26;1.40;;;1.30;;
19396;SDS011;9834;48.076;11.878;2023-10-13T05:17:10;3.40;;;1.80;;
19396;SDS011;9834;48.076;11.878;2023-10-13T05:20:13;3.70;;;1.90;;
19396;SDS011;9834;48.076;11.878;2023-10-13T05:22:57;2.77;;;1.87;;
19396;SDS011;9834;48.076;11.878;2023-10-13T05:25:42;6.87;;;1.87;;
19396;SDS011;9834;48.076;11.878;2023-10-13T05:28:29;4.03;;;1.77;;
19396;SDS011;9834;48.076;11.878;2023-10-13T05:31:14;3.60;;;2.00;;
19396;SDS011;9834;48.076;11.878;2023-10-13T05:34:05;1.83;;;1.63;;
19396;SDS011;9834;48.076;11.878;2023-10-13T05:36:52;5.60;;;2.10;;
19396;SDS011;9834;48.076;11.878;2023-10-13T05:39:40;2.20;;;1.60;;
19396;SDS011;9834;48.076;11.878;2023-10-13T05:42:30;3.97;;;1.60;;
19396;SDS011;9834;48.076;11.878;2023-10-13T05:45:15;4.63;;;2.23;;
19396;SDS011;9834;48.076;11.878;2023-10-13T05:48:07;2.37;;;1.73;;
19396;SDS011;9834;48.076;11.878;2023-10-13T05:50:44;2.07;;;1.83;;
19396;SDS011;9834;48.076;11.878;2023-10-13T05:53:43;4.17;;;1.83;;
19396;SDS011;9834;48.076;11.878;2023-10-13T05:56:27;3.13;;;1.97;;
19396;SDS011;9834;48.076;11.878;2023-10-13T05:59:29;2.20;;;1.80;;
19396;SDS011;9834;48.076;11.878;2023-10-13T06:02:19;2.43;;;2.00;;
19396;SDS011;9834;48.076;11.878;2023-10-13T06:05:07;7.00;;;2.03;;
19396;SDS011;9834;48.076;11.878;2023-10-13T06:07:53;5.70;;;1.93;;
19396;SDS011;9834;48.076;11.878;2023-10-13T06:10:41;2.27;;;1.27;;
19396;SDS011;9834;48.076;11.878;2023-10-13T06:13:31;3.60;;;1.83;;
19396;SDS011;9834;48.076;11.878;2023-10-13T06:16:16;4.87;;;2.43;;
19396;SDS011;9834;48.076;11.878;2023-10-13T06:19:02;3.83;;;2.30;;
19396;SDS011;9834;48.076;11.878;2023-10-13T06:21:47;5.13;;;2.17;;
19396;SDS011;9834;48.076;11.878;2023-10-13T06:24:38;2.93;;;1.77;;
19396;SDS011;9834;48.076;11.878;2023-10-13T06:27:26;2.23;;;1.80;;
19396;SDS011;9834;48.076;11.878;2023-10-13T06:30:13;8.80;;;2.50;;
19396;SDS011;9834;48.076;11.878;2023-10-13T06:32:49;2.47;;;1.80;;
19396;SDS011;9834;48.076;11.878;2023-10-13T06:35:21;4.73;;;2.20;;
19396;SDS011;9834;48.076;11.878;2023-10-13T06:37:52;5.20;;;2.60;;
19396;SDS011;9834;48.076;11.878;2023-10-13T06:40:22;3.53;;;1.70;;
19396;SDS011;9834;48.076;11.878;2023-10-13T06:42:51;2.60;;;1.70;;
19396;SDS011;9834;48.076;11.878;2023-10-13T06:45:36;5.23;;;2.00;;
19396;SDS011;9834;48.076;11.878;2023-10-13T06:48:06;4.07;;;2.00;;
19396;SDS011;9834;48.076;11.878;2023-10-13T06:50:41;3.97;;;1.87;;
19396;SDS011;9834;48.076;11.878;2023-10-13T06:53:14;4.30;;;1.77;;
19396;SDS011;9834;48.076;11.878;2023-10-13T06:55:44;2.17;;;1.67;;
19396;SDS011;9834;48.076;11.878;2023-10-13T06:58:24;2.67;;;1.90;;
19396;SDS011;9834;48.076;11.878;2023-10-13T07:00:52;3.60;;;1.90;;
19396;SDS011;9834;48.076;11.878;2023-10-13T07:03:23;3.60;;;2.03;;
19396;SDS011;9834;48.076;11.878;2023-10-13T07:05:58;2.80;;;2.17;;
19396;SDS011;9834;48.076;11.878;2023-10-13T07:08:25;3.43;;;1.57;;
19396;SDS011;9834;48.076;11.878;2023-10-13T07:10:56;3.23;;;2.03;;
19396;SDS011;9834;48.076;11.878;2023-10-13T07:13:30;2.20;;;1.57;;
19396;SDS011;9834;48.076;11.878;2023-10-13T07:16:04;5.83;;;1.93;;
19396;SDS011;9834;48.076;11.878;2023-10-13T07:18:36;2.27;;;1.67;;
19396;SDS011;9834;48.076;11.878;2023-10-13T07:21:15;5.47;;;2.13;;
19396;SDS011;9834;48.076;11.878;2023-10-13T07:23:49;2.50;;;1.67;;
19396;SDS011;9834;48.076;11.878;2023-10-13T07:26:28;2.60;;;1.60;;
19396;SDS011;9834;48.076;11.878;2023-10-13T07:28:59;3.37;;;1.70;;
19396;SDS011;9834;48.076;11.878;2023-10-13T07:31:29;10.70;;;2.50;;
19396;SDS011;9834;48.076;11.878;2023-10-13T07:33:56;1.63;;;1.50;;
19396;SDS011;9834;48.076;11.878;2023-10-13T07:36:31;4.40;;;1.40;;
19396;SDS011;9834;48.076;11.878;2023-10-13T07:39:07;3.17;;;1.80;;
19396;SDS011;9834;48.076;11.878;2023-10-13T07:41:51;5.00;;;1.47;;
19396;SDS011;9834;48.076;11.878;2023-10-13T07:44:32;2.80;;;1.87;;
19396;SDS011;9834;48.076;11.878;2023-10-13T07:46:59;5.10;;;1.53;;
19396;SDS011;9834;48.076;11.878;2023-10-13T07:49:30;4.50;;;1.70;;
19396;SDS011;9834;48.076;11.878;2023-10-13T07:52:05;5.37;;;1.53;;
19396;SDS011;9834;48.076;11.878;2023-10-13T07:54:49;5.60;;;1.70;;
19396;SDS011;9834;48.076;11.878;2023-10-13T07:57:25;2.50;;;1.63;;
19396;SDS011;9834;48.076;11.878;2023-10-13T07:59:57;3.20;;;1.87;;
19396;SDS011;9834;48.076;11.878;2023-10-13T08:02:58;10.17;;;2.07;;
19396;SDS011;9834;48.076;11.878;2023-10-13T08:05:39;1.73;;;1.47;;
19396;SDS011;9834;48.076;11.878;2023-10-13T08:08:22;3.93;;;2.17;;
19396;SDS011;9834;48.076;11.878;2023-10-13T08:10:56;10.43;;;2.20;;
19396;SDS011;9834;48.076;11.878;2023-10-13T08:13:33;3.33;;;1.63;;
19396;SDS011;9834;48.076;11.878;2023-10-13T08:16:04;2.50;;;1.70;;
19396;SDS011;9834;48.076;11.878;2023-10-13T08:18:37;3.80;;;2.03;;
19396;SDS011;9834;48.076;11.878;2023-10-13T08:21:08;5.00;;;1.50;;
19396;SDS011;9834;48.076;11.878;2023-10-13T08:23:43;2.77;;;1.67;;
19396;SDS011;9834;48.076;11.878;2023-10-13T08:26:32;5.70;;;1.80;;
19396;SDS011;9834;48.076;11.878;2023-10-13T08:29:19;11.57;;;3.43;;
19396;SDS011;9834;48.076;11.878;2023-10-13T08:32:05;7.07;;;2.43;;
19396;SDS011;9834;48.076;11.878;2023-10-13T08:35:04;2.30;;;1.90;;
19396;SDS011;9834;48.076;11.878;2023-10-13T08:37:48;4.40;;;1.87;;
19396;SDS011;9834;48.076;11.878;2023-10-13T08:40:27;1.97;;;1.60;;
19396;SDS011;9834;48.076;11.878;2023-10-13T08:43:32;1.52;;;1.42;;
19396;SDS011;9834;48.076;11.878;2023-10-13T08:46:09;1.57;;;1.30;;
19396;SDS011;9834;48.076;11.878;2023-10-13T08:48:50;3.70;;;1.70;;
19396;SDS011;9834;48.076;11.878;2023-10-13T08:51:33;5.20;;;2.37;;
19396;SDS011;9834;48.076;11.878;2023-10-13T08:54:14;2.40;;;1.40;;
19396;SDS011;9834;48.076;11.878;2023-10-13T08:57:09;4.47;;;1.77;;
19396;SDS011;9834;48.076;11.878;2023-10-13T08:59:53;4.15;;;1.92;;
19396;SDS011;9834;48.076;11.878;2023-10-13T09:02:21;4.30;;;1.75;;
19396;SDS011;9834;48.076;11.878;2023-10-13T09:04:47;4.85;;;1.95;;
19396;SDS011;9834;48.076;11.878;2023-10-13T09:07:24;6.40;;;2.05;;
19396;SDS011;9834;48.076;11.878;2023-10-13T09:09:51;7.80;;;2.05;;
19396;SDS011;9834;48.076;11.878;2023-10-13T09:12:37;1.80;;;1.58;;
19396;SDS011;9834;48.076;11.878;2023-10-13T09:15:29;3.20;;;1.60;;
19396;SDS011;9834;48.076;11.878;2023-10-13T09:18:22;3.05;;;1.88;;
19396;SDS011;9834;48.076;11.878;2023-10-13T09:21:07;2.15;;;1.30;;
19396;SDS011;9834;48.076;11.878;2023-10-13T09:23:57;11.80;;;1.70;;
19396;SDS011;9834;48.076;11.878;2023-10-13T09:26:40;4.55;;;1.70;;
19396;SDS011;9834;48.076;11.878;2023-10-13T09:29:18;4.55;;;1.55;;
19396;SDS011;9834;48.076;11.878;2023-10-13T09:32:01;1.58;;;1.45;;
19396;SDS011;9834;48.076;11.878;2023-10-13T09:34:29;4.53;;;1.55;;
19396;SDS011;9834;48.076;11.878;2023-10-13T09:37:00;1.75;;;1.50;;
19396;SDS011;9834;48.076;11.878;2023-10-13T09:39:29;3.17;;;1.77;;
19396;SDS011;9834;48.076;11.878;2023-10-13T09:42:18;1.83;;;1.70;;
19396;SDS011;9834;48.076;11.878;2023-10-13T09:44:53;3.72;;;1.77;;
19396;SDS011;9834;48.076;11.878;2023-10-13T09:47:24;4.38;;;1.92;;
19396;SDS011;9834;48.076;11.878;2023-10-13T09:49:57;3.28;;;1.73;;
19396;SDS011;9834;48.076;11.878;2023-10-13T09:52:54;1.55;;;1.45;;
19396;SDS011;9834;48.076;11.878;2023-10-13T09:55:26;2.05;;;1.45;;
19396;SDS011;9834;48.076;11.878;2023-10-13T09:58:00;3.80;;;1.90;;
19396;SDS011;9834;48.076;11.878;2023-10-13T10:03:25;2.15;;;1.77;;
19396;SDS011;9834;48.076;11.878;2023-10-13T10:06:04;3.83;;;1.58;;
19396;SDS011;9834;48.076;11.878;2023-10-13T10:08:52;2.83;;;1.75;;
19396;SDS011;9834;48.076;11.878;2023-10-13T10:11:57;4.28;;;1.77;;
19396;SDS011;9834;48.076;11.878;2023-10-13T10:17:46;3.17;;;1.77;;
19396;SDS011;9834;48.076;11.878;2023-10-13T10:20:17;2.25;;;1.67;;
19396;SDS011;9834;48.076;11.878;2023-10-13T10:23:07;4.10;;;2.38;;
19396;SDS011;9834;48.076;11.878;2023-10-13T10:25:42;2.15;;;1.63;;
19396;SDS011;9834;48.076;11.878;2023-10-13T10:28:17;4.55;;;2.17;;
19396;SDS011;9834;48.076;11.878;2023-10-13T10:30:50;2.63;;;1.70;;
19396;SDS011;9834;48.076;11.878;2023-10-13T10:33:30;2.72;;;1.63;;
19396;SDS011;9834;48.076;11.878;2023-10-13T10:36:05;4.85;;;2.25;;
19396;SDS011;9834;48.076;11.878;2023-10-13T10:38:37;2.67;;;1.65;;
19396;SDS011;9834;48.076;11.878;2023-10-13T10:41:30;4.20;;;2.05;;
19396;SDS011;9834;48.076;11.878;2023-10-13T10:44:09;3.17;;;1.83;;
19396;SDS011;9834;48.076;11.878;2023-10-13T10:46:42;2.65;;;1.67;;
19396;SDS011;9834;48.076;11.878;2023-10-13T10:49:23;3.72;;;1.55;;
19396;SDS011;9834;48.076;11.878;2023-10-13T10:51:57;3.15;;;1.63;;
19396;SDS011;9834;48.076;11.878;2023-10-13T10:54:29;3.50;;;1.65;;
19396;SDS011;9834;48.076;11.878;2023-10-13T10:57:09;3.13;;;1.65;;
19396;SDS011;9834;48.076;11.878;2023-10-13T10:59:43;2.85;;;1.85;;
19396;SDS011;9834;48.076;11.878;2023-10-13T11:02:13;4.43;;;1.67;;
19396;SDS011;9834;48.076;11.878;2023-10-13T11:04:53;2.95;;;1.52;;
19396;SDS011;9834;48.076;11.878;2023-10-13T11:07:23;3.55;;;1.73;;
19396;SDS011;9834;48.076;11.878;2023-10-13T11:09:55;3.20;;;2.03;;
19396;SDS011;9834;48.076;11.878;2023-10-13T11:12:32;1.98;;;1.42;;
19396;SDS011;9834;48.076;11.878;2023-10-13T11:15:00;1.35;;;1.25;;
19396;SDS011;9834;48.076;11.878;2023-10-13T11:17:30;3.38;;;1.67;;
19396;SDS011;9834;48.076;11.878;2023-10-13T11:20:10;2.70;;;2.20;;
19396;SDS011;9834;48.076;11.878;2023-10-13T11:22:51;3.80;;;1.95;;
19396;SDS011;9834;48.076;11.878;2023-10-13T11:25:22;3.80;;;1.52;;
19396;SDS011;9834;48.076;11.878;2023-10-13T11:27:55;4.97;;;1.77;;
19396;SDS011;9834;48.076;11.878;2023-10-13T11:30:23;3.42;;;1.75;;
19396;SDS011;9834;48.076;11.878;2023-10-13T11:33:07;3.97;;;1.70;;
19396;SDS011;9834;48.076;11.878;2023-10-13T11:35:38;2.58;;;1.48;;
19396;SDS011;9834;48.076;11.878;2023-10-13T11:38:27;3.08;;;1.77;;
19396;SDS011;9834;48.076;11.878;2023-10-13T11:41:07;5.72;;;2.00;;
19396;SDS011;9834;48.076;11.878;2023-10-13T11:43:41;1.65;;;1.55;;
19396;SDS011;9834;48.076;11.878;2023-10-13T11:46:32;3.85;;;1.65;;
19396;SDS011;9834;48.076;11.878;2023-10-13T11:49:20;7.78;;;2.05;;
19396;SDS011;9834;48.076;11.878;2023-10-13T11:52:13;3.05;;;1.60;;
19396;SDS011;9834;48.076;11.878;2023-10-13T11:54:46;2.47;;;1.70;;
19396;SDS011;9834;48.076;11.878;2023-10-13T11:57:16;4.53;;;1.60;;
19396;SDS011;9834;48.076;11.878;2023-10-13T11:59:47;5.70;;;1.48;;
19396;SDS011;9834;48.076;11.878;2023-10-13T12:02:47;3.13;;;1.50;;
19396;SDS011;9834;48.076;11.878;2023-10-13T12:05:52;2.47;;;1.33;;
19396;SDS011;9834;48.076;11.878;2023-10-13T12:08:44;2.33;;;1.70;;
19396;SDS011;9834;48.076;11.878;2023-10-13T12:11:23;2.38;;;1.80;;
19396;SDS011;9834;48.076;11.878;2023-10-13T12:14:00;2.13;;;1.75;;
19396;SDS011;9834;48.076;11.878;2023-10-13T12:16:37;4.78;;;1.60;;
19396;SDS011;9834;48.076;11.878;2023-10-13T12:19:04;2.38;;;1.63;;
19396;SDS011;9834;48.076;11.878;2023-10-13T12:21:36;5.25;;;1.80;;
19396;SDS011;9834;48.076;11.878;2023-10-13T12:24:10;3.22;;;1.45;;
19396;SDS011;9834;48.076;11.878;2023-10-13T12:26:47;3.33;;;1.50;;
19396;SDS011;9834;48.076;11.878;2023-10-13T12:29:21;2.78;;;1.90;;
19396;SDS011;9834;48.076;11.878;2023-10-13T12:31:53;1.50;;;1.38;;
19396;SDS011;9834;48.076;11.878;2023-10-13T12:34:32;1.92;;;1.65;;
19396;SDS011;9834;48.076;11.878;2023-10-13T12:37:23;1.50;;;1.27;;
19396;SDS011;9834;48.076;11.878;2023-10-13T12:40:22;4.13;;;1.45;;
19396;SDS011;9834;48.076;11.878;2023-10-13T12:43:09;2.85;;;1.75;;
19396;SDS011;9834;48.076;11.878;2023-10-13T12:45:53;2.28;;;1.65;;
19396;SDS011;9834;48.076;11.878;2023-10-13T12:48:38;6.78;;;1.65;;
19396;SDS011;9834;48.076;11.878;2023-10-13T12:51:23;1.40;;;1.30;;
19396;SDS011;9834;48.076;11.878;2023-10-13T12:54:07;2.13;;;1.60;;
19396;SDS011;9834;48.076;11.878;2023-10-13T12:56:42;2.22;;;1.60;;
19396;SDS011;9834;48.076;11.878;2023-10-13T12:59:15;8.48;;;1.88;;
19396;SDS011;9834;48.076;11.878;2023-10-13T13:01:51;2.63;;;1.52;;
19396;SDS011;9834;48.076;11.878;2023-10-13T13:04:21;1.95;;;1.80;;
19396;SDS011;9834;48.076;11.878;2023-10-13T13:06:57;4.97;;;1.48;;
19396;SDS011;9834;48.076;11.878;2023-10-13T13:09:24;1.58;;;1.48;;
19396;SDS011;9834;48.076;11.878;2023-10-13T13:12:02;2.42;;;1.25;;
19396;SDS011;9834;48.076;11.878;2023-10-13T13:14:31;2.10;;;1.02;;
19396;SDS011;9834;48.076;11.878;2023-10-13T13:17:01;4.13;;;1.30;;
19396;SDS011;9834;48.076;11.878;2023-10-13T13:19:31;1.65;;;1.30;;
19396;SDS011;9834;48.076;11.878;2023-10-13T13:22:01;2.85;;;1.70;;
19396;SDS011;9834;48.076;11.878;2023-10-13T13:24:32;3.90;;;1.55;;
19396;SDS011;9834;48.076;11.878;2023-10-13T13:27:10;1.77;;;1.27;;
19396;SDS011;9834;48.076;11.878;2023-10-13T13:29:39;9.48;;;2.03;;
19396;SDS011;9834;48.076;11.878;2023-10-13T13:32:06;1.25;;;1.15;;
19396;SDS011;9834;48.076;11.878;2023-10-13T13:34:51;1.73;;;1.33;;
19396;SDS011;9834;48.076;11.878;2023-10-13T13:37:29;1.52;;;1.42;;
19396;SDS011;9834;48.076;11.878;2023-10-13T13:39:56;1.95;;;1.50;;
19396;SDS011;9834;48.076;11.878;2023-10-13T13:42:42;2.97;;;1.85;;
19396;SDS011;9834;48.076;11.878;2023-10-13T13:45:13;7.93;;;2.10;;
19396;SDS011;9834;48.076;11.878;2023-10-13T13:47:53;2.15;;;1.40;;
19396;SDS011;9834;48.076;11.878;2023-10-13T13:50:28;1.20;;;1.10;;
19396;SDS011;9834;48.076;11.878;2023-10-13T13:53:03;1.85;;;1.50;;
19396;SDS011;9834;48.076;11.878;2023-10-13T13:55:38;2.40;;;1.45;;
19396;SDS011;9834;48.076;11.878;2023-10-13T13:58:10;4.90;;;1.55;;
19396;SDS011;9834;48.076;11.878;2023-10-13T14:00:38;1.67;;;1.58;;
19396;SDS011;9834;48.076;11.878;2023-10-13T14:03:13;1.55;;;1.45;;
19396;SDS011;9834;48.076;11.878;2023-10-13T14:05:56;2.03;;;1.67;;
19396;SDS011;9834;48.076;11.878;2023-10-13T14:08:24;3.88;;;1.73;;
19396;SDS011;9834;48.076;11.878;2023-10-13T14:10:57;1.13;;;1.13;;
19396;SDS011;9834;48.076;11.878;2023-10-13T14:13:48;1.40;;;1.30;;
19396;SDS011;9834;48.076;11.878;2023-10-13T14:16:18;5.10;;;1.60;;
19396;SDS011;9834;48.076;11.878;2023-10-13T14:18:48;1.63;;;1.35;;
19396;SDS011;9834;48.076;11.878;2023-10-13T14:21:24;2.60;;;1.40;;
19396;SDS011;9834;48.076;11.878;2023-10-13T14:23:53;1.90;;;1.30;;
19396;SDS011;9834;48.076;11.878;2023-10-13T14:26:25;3.47;;;1.55;;
19396;SDS011;9834;48.076;11.878;2023-10-13T14:28:54;2.03;;;1.48;;
19396;SDS011;9834;48.076;11.878;2023-10-13T14:31:27;4.00;;;1.90;;
19396;SDS011;9834;48.076;11.878;2023-10-13T14:33:54;2.20;;;1.95;;
19396;SDS011;9834;48.076;11.878;2023-10-13T14:36:22;6.22;;;1.58;;
19396;SDS011;9834;48.076;11.878;2023-10-13T14:38:53;3.08;;;1.88;;
19396;SDS011;9834;48.076;11.878;2023-10-13T14:41:21;4.55;;;1.50;;
19396;SDS011;9834;48.076;11.878;2023-10-13T14:43:51;2.35;;;1.83;;
19396;SDS011;9834;48.076;11.878;2023-10-13T14:46:31;5.35;;;1.67;;
19396;SDS011;9834;48.076;11.878;2023-10-13T14:49:07;15.38;;;2.20;;
19396;SDS011;9834;48.076;11.878;2023-10-13T14:51:39;1.67;;;1.58;;
19396;SDS011;9834;48.076;11.878;2023-10-13T14:54:06;1.95;;;1.73;;
19396;SDS011;9834;48.076;11.878;2023-10-13T14:56:33;2.30;;;1.73;;
19396;SDS011;9834;48.076;11.878;2023-10-13T14:59:12;3.97;;;1.90;;
19396;SDS011;9834;48.076;11.878;2023-10-13T15:01:42;5.40;;;1.67;;
19396;SDS011;9834;48.076;11.878;2023-10-13T15:04:11;3.00;;;1.60;;
19396;SDS011;9834;48.076;11.878;2023-10-13T15:06:44;2.53;;;1.27;;
19396;SDS011;9834;48.076;11.878;2023-10-13T15:09:11;2.47;;;1.42;;
19396;SDS011;9834;48.076;11.878;2023-10-13T15:11:38;1.65;;;1.52;;
19396;SDS011;9834;48.076;11.878;2023-10-13T15:14:14;3.85;;;1.77;;
19396;SDS011;9834;48.076;11.878;2023-10-13T15:16:45;2.60;;;1.67;;
19396;SDS011;9834;48.076;11.878;2023-10-13T15:19:24;2.97;;;1.92;;
19396;SDS011;9834;48.076;11.878;2023-10-13T15:21:55;3.28;;;1.98;;
19396;SDS011;9834;48.076;11.878;2023-10-13T15:24:24;2.58;;;1.95;;
19396;SDS011;9834;48.076;11.878;2023-10-13T15:27:01;12.05;;;2.10;;
19396;SDS011;9834;48.076;11.878;2023-10-13T15:29:34;3.05;;;2.10;;
19396;SDS011;9834;48.076;11.878;2023-10-13T15:32:02;4.13;;;1.33;;
19396;SDS011;9834;48.076;11.878;2023-10-13T15:34:49;7.13;;;2.58;;
19396;SDS011;9834;48.076;11.878;2023-10-13T15:37:16;6.63;;;3.25;;
19396;SDS011;9834;48.076;11.878;2023-10-13T15:39:50;4.35;;;2.45;;
19396;SDS011;9834;48.076;11.878;2023-10-13T15:42:18;3.03;;;2.10;;
19396;SDS011;9834;48.076;11.878;2023-10-13T15:44:50;5.32;;;2.53;;
19396;SDS011;9834;48.076;11.878;2023-10-13T15:47:19;3.88;;;2.58;;
19396;SDS011;9834;48.076;11.878;2023-10-13T15:49:49;5.57;;;3.58;;
19396;SDS011;9834;48.076;11.878;2023-10-13T15:52:36;7.90;;;3.25;;
19396;SDS011;9834;48.076;11.878;2023-10-13T15:55:14;7.95;;;2.10;;
19396;SDS011;9834;48.076;11.878;2023-10-13T15:57:43;6.63;;;2.45;;
19396;SDS011;9834;48.076;11.878;2023-10-13T16:00:12;14.90;;;4.60;;
19396;SDS011;9834;48.076;11.878;2023-10-13T16:02:55;11.70;;;5.95;;
19396;SDS011;9834;48.076;11.878;2023-10-13T16:05:23;20.88;;;6.80;;
19396;SDS011;9834;48.076;11.878;2023-10-13T16:08:00;11.00;;;5.13;;